Time;durP1;ratioP1;P1;durP2;ratioP2;P2;SDS_P1;SDS_P2;PMS_P1;PMS_P2;Temp;Humidity;BMP_temperature;BMP_pressure;BME280_temperature;BME280_humidity;BME280_pressure;Samples;Min_cycle;Max_cycle;Signal;HPM_P1;HPM_P2
2023/10/20 00:01:57;;;;;;;70.60;59.10;;;;;;;9.53;100.00;96917.44;109632;1251;59053;-65
2023/10/20 00:04:24;;;;;;;71.80;58.20;;;;;;;9.53;100.00;96919.95;109613;1251;58959;-66
2023/10/20 00:06:50;;;;;;;68.40;58.30;;;;;;;9.52;100.00;96919.83;109671;1251;59882;-66
2023/10/20 00:09:18;;;;;;;66.30;58.30;;;;;;;9.51;100.00;96930.05;109588;1250;58975;-66
2023/10/20 00:11:45;;;;;;;64.60;57.60;;;;;;;9.49;100.00;96927.05;109357;1250;60622;-66
2023/10/20 00:14:11;;;;;;;65.40;57.70;;;;;;;9.48;100.00;96920.55;109625;1250;63748;-65
2023/10/20 00:16:38;;;;;;;66.30;56.30;;;;;;;9.47;100.00;96918.02;109585;1251;58935;-65
2023/10/20 00:19:04;;;;;;;65.90;56.10;;;;;;;9.46;100.00;96921.14;109646;1250;59041;-66
2023/10/20 00:21:31;;;;;;;61.80;52.60;;;;;;;9.42;100.00;96916.13;109571;1251;74539;-66
2023/10/20 00:23:57;;;;;;;64.10;56.00;;;;;;;9.41;100.00;96913.55;109612;1250;60116;-65
2023/10/20 00:26:24;;;;;;;62.70;54.90;;;;;;;9.40;100.00;96917.73;109579;1250;64049;-66
2023/10/20 00:28:50;;;;;;;65.90;54.30;;;;;;;9.40;100.00;96914.42;109589;1250;59017;-66
2023/10/20 00:31:17;;;;;;;62.70;55.10;;;;;;;9.39;100.00;96909.86;109576;1251;59065;-66
2023/10/20 00:33:45;;;;;;;63.80;56.50;;;;;;;9.40;100.00;96906.59;109595;1251;58997;-66
2023/10/20 00:36:12;;;;;;;68.00;58.70;;;;;;;9.40;100.00;96905.16;109562;1251;60139;-65
2023/10/20 00:38:38;;;;;;;63.40;52.50;;;;;;;9.42;100.00;96911.89;109577;1251;59314;-66
2023/10/20 00:41:05;;;;;;;66.80;54.10;;;;;;;9.40;100.00;96907.25;109615;1251;59031;-66
2023/10/20 00:43:36;;;;;;;66.30;57.50;;;;;;;9.38;100.00;96910.66;109597;1250;59025;-66
2023/10/20 00:46:04;;;;;;;65.10;56.80;;;;;;;9.38;100.00;96903.21;109594;1251;65748;-66
2023/10/20 00:48:32;;;;;;;71.30;60.50;;;;;;;9.39;100.00;96899.23;109610;1251;61297;-66
2023/10/20 00:51:00;;;;;;;69.10;60.10;;;;;;;9.41;100.00;96898.52;109576;1251;64118;-67
2023/10/20 00:53:29;;;;;;;67.30;57.90;;;;;;;9.43;100.00;96887.85;109559;1251;59021;-67
2023/10/20 00:55:56;;;;;;;77.80;68.10;;;;;;;9.44;100.00;96867.75;109589;1251;59128;-67
2023/10/20 00:58:27;;;;;;;71.70;63.30;;;;;;;9.44;100.00;96852.29;109591;1251;66060;-67
2023/10/20 01:00:54;;;;;;;75.40;63.70;;;;;;;9.45;100.00;96847.27;109600;1251;60280;-67
2023/10/20 01:03:22;;;;;;;75.50;64.60;;;;;;;9.46;100.00;96850.53;109601;1251;62858;-67
2023/10/20 01:05:49;;;;;;;72.00;62.40;;;;;;;9.48;100.00;96854.13;109584;1250;58965;-67
2023/10/20 01:08:15;;;;;;;72.60;62.20;;;;;;;9.49;100.00;96860.77;109605;1250;59088;-67
2023/10/20 01:10:42;;;;;;;76.20;62.50;;;;;;;9.49;100.00;96859.51;109620;1251;67447;-66
2023/10/20 01:13:08;;;;;;;78.30;69.70;;;;;;;9.50;100.00;96855.49;109631;1250;68410;-66
2023/10/20 01:15:38;;;;;;;78.00;67.10;;;;;;;9.51;100.00;96845.48;109563;1250;62795;-66
2023/10/20 01:18:07;;;;;;;75.20;65.50;;;;;;;9.51;100.00;96840.30;109638;1250;59062;-66
2023/10/20 01:20:33;;;;;;;73.50;64.80;;;;;;;9.52;100.00;96836.84;109602;1250;59192;-66
2023/10/20 01:23:01;;;;;;;72.40;64.00;;;;;;;9.52;100.00;96835.77;109580;1251;58947;-66
2023/10/20 01:25:27;;;;;;;73.20;65.10;;;;;;;9.52;100.00;96836.87;109635;1251;59015;-66
2023/10/20 01:27:55;;;;;;;75.10;64.70;;;;;;;9.52;100.00;96837.84;109593;1251;62534;-66
2023/10/20 01:30:21;;;;;;;77.60;66.30;;;;;;;9.51;100.00;96838.05;109594;1250;58997;-66
2023/10/20 01:32:48;;;;;;;73.90;63.00;;;;;;;9.52;100.00;96830.19;109592;1251;58952;-65
2023/10/20 01:35:14;;;;;;;66.90;59.60;;;;;;;9.51;100.00;96822.09;109600;1250;66148;-66
2023/10/20 01:37:42;;;;;;;69.80;62.10;;;;;;;9.52;100.00;96817.42;109602;1250;60090;-66
2023/10/20 01:40:11;;;;;;;71.50;60.10;;;;;;;9.51;100.00;96812.51;109634;1251;64062;-67
2023/10/20 01:42:39;;;;;;;71.10;59.40;;;;;;;9.51;100.00;96813.43;109360;1251;59688;-66
2023/10/20 01:45:06;;;;;;;70.90;61.10;;;;;;;9.51;100.00;96811.64;109639;1250;58967;-67
2023/10/20 01:47:34;;;;;;;66.90;59.60;;;;;;;9.50;100.00;96812.92;109617;1251;64499;-66
2023/10/20 01:50:01;;;;;;;66.70;58.80;;;;;;;9.50;100.00;96813.31;109606;1250;60080;-66
2023/10/20 01:52:27;;;;;;;70.10;59.80;;;;;;;9.50;100.00;96805.84;109614;1251;63950;-66
2023/10/20 01:54:54;;;;;;;66.40;59.20;;;;;;;9.50;100.00;96796.44;109589;1250;59178;-67
2023/10/20 01:57:20;;;;;;;68.30;57.50;;;;;;;9.51;100.00;96790.57;109633;1250;58875;-66
2023/10/20 01:59:47;;;;;;;65.40;55.30;;;;;;;9.52;100.00;96793.30;109579;1250;59339;-66
2023/10/20 02:02:14;;;;;;;65.60;56.30;;;;;;;9.52;100.00;96807.09;109602;1251;58992;-66
2023/10/20 02:04:41;;;;;;;67.40;56.60;;;;;;;9.52;100.00;96799.31;109606;1250;63019;-66
2023/10/20 02:07:07;;;;;;;62.90;52.80;;;;;;;9.52;100.00;96786.59;109547;1251;58962;-66
2023/10/20 02:09:34;;;;;;;61.00;54.10;;;;;;;9.52;100.00;96782.63;109621;1251;58931;-66
2023/10/20 02:12:03;;;;;;;62.10;53.20;;;;;;;9.51;100.00;96783.79;109601;1250;58953;-66
2023/10/20 02:14:30;;;;;;;65.10;55.90;;;;;;;9.50;100.00;96779.42;109603;1250;59035;-66
2023/10/20 02:16:56;;;;;;;65.60;54.60;;;;;;;9.48;100.00;96776.84;109621;1250;64164;-66
2023/10/20 02:19:23;;;;;;;67.40;56.20;;;;;;;9.45;100.00;96782.76;109567;1250;59543;-66
2023/10/20 02:21:51;;;;;;;63.20;52.70;;;;;;;9.42;100.00;96787.68;109594;1250;58958;-66
2023/10/20 02:24:17;;;;;;;61.90;51.90;;;;;;;9.40;100.00;96790.88;109616;1250;64624;-67
2023/10/20 02:26:45;;;;;;;61.40;52.50;;;;;;;9.38;100.00;96789.48;109610;1250;58927;-66
2023/10/20 02:29:12;;;;;;;65.00;51.70;;;;;;;9.37;100.00;96787.65;109601;1250;62951;-66
2023/10/20 02:31:38;;;;;;;60.70;51.20;;;;;;;9.35;100.00;96778.10;109582;1251;58988;-66
2023/10/20 02:34:05;;;;;;;61.30;51.70;;;;;;;9.33;100.00;96775.75;109594;1250;59097;-66
2023/10/20 02:36:34;;;;;;;59.70;51.10;;;;;;;9.34;100.00;96775.00;109613;1250;58954;-66
2023/10/20 02:39:01;;;;;;;64.00;53.20;;;;;;;9.34;100.00;96776.06;109653;1250;60119;-66
2023/10/20 02:41:28;;;;;;;64.10;52.60;;;;;;;9.35;100.00;96780.63;109618;1251;64894;-66
2023/10/20 02:43:55;;;;;;;57.80;51.30;;;;;;;9.36;100.00;96788.41;109598;1250;58943;-67
2023/10/20 02:46:21;;;;;;;58.40;51.80;;;;;;;9.39;100.00;96786.20;109589;1250;59001;-66
2023/10/20 02:48:48;;;;;;;62.30;52.60;;;;;;;9.42;100.00;96782.89;109611;1251;65799;-66
2023/10/20 02:51:15;;;;;;;61.10;50.20;;;;;;;9.46;100.00;96781.30;109671;1250;59036;-66
2023/10/20 02:53:42;;;;;;;59.70;50.90;;;;;;;9.49;100.00;96774.25;109464;1251;62638;-66
2023/10/20 02:56:28;;;;;;;61.80;52.80;;;;;;;9.51;100.00;96775.65;109599;1250;58957;-66
2023/10/20 02:58:54;;;;;;;60.70;54.00;;;;;;;9.53;100.00;96773.64;109651;1250;58875;-66
2023/10/20 03:01:21;;;;;;;57.80;50.00;;;;;;;9.55;100.00;96765.98;109632;1250;59282;-66
2023/10/20 03:03:48;;;;;;;55.50;49.50;;;;;;;9.58;100.00;96761.63;109594;1250;60972;-66
2023/10/20 03:06:14;;;;;;;55.20;48.60;;;;;;;9.61;100.00;96760.26;109387;1253;59042;-66
2023/10/20 03:08:40;;;;;;;55.60;48.00;;;;;;;9.64;100.00;96756.98;109636;1250;58996;-66
2023/10/20 03:11:08;;;;;;;58.80;50.60;;;;;;;9.66;100.00;96758.37;109618;1250;59009;-66
2023/10/20 03:13:35;;;;;;;52.60;46.90;;;;;;;9.68;100.00;96754.30;109614;1250;66049;-66
2023/10/20 03:16:01;;;;;;;55.50;48.60;;;;;;;9.71;100.00;96749.77;109644;1250;58978;-66
2023/10/20 03:18:28;;;;;;;56.00;49.90;;;;;;;9.73;100.00;96739.08;109589;1250;59065;-67
2023/10/20 03:20:59;;;;;;;59.70;50.50;;;;;;;9.75;100.00;96735.84;109617;1254;58970;-67
2023/10/20 03:23:25;;;;;;;55.70;49.50;;;;;;;9.78;100.00;96728.11;109678;1250;59124;-65
2023/10/20 03:25:52;;;;;;;53.80;48.00;;;;;;;9.80;100.00;96730.77;109510;1251;59485;-65
2023/10/20 03:28:18;;;;;;;51.70;46.00;;;;;;;9.82;100.00;96734.64;109358;1251;59025;-66
2023/10/20 03:30:45;;;;;;;56.60;47.10;;;;;;;9.84;100.00;96731.95;109498;1250;59069;-66
2023/10/20 03:33:15;;;;;;;53.30;46.60;;;;;;;9.86;100.00;96727.69;109638;1250;59223;-66
2023/10/20 03:35:42;;;;;;;55.50;49.50;;;;;;;9.87;100.00;96721.52;109639;1250;59176;-66
2023/10/20 03:38:09;;;;;;;52.90;47.00;;;;;;;9.88;100.00;96717.13;109636;1250;66992;-66
2023/10/20 03:40:40;;;;;;;53.20;47.60;;;;;;;9.90;100.00;96719.61;109589;1250;59429;-66
2023/10/20 03:43:09;;;;;;;55.40;48.20;;;;;;;9.92;100.00;96722.84;109578;1250;63844;-66
2023/10/20 03:45:41;;;;;;;53.40;47.70;;;;;;;9.93;100.00;96724.48;109596;1250;59188;-66
2023/10/20 03:48:09;;;;;;;50.60;45.10;;;;;;;9.95;100.00;96721.46;109587;1250;60484;-66
2023/10/20 03:50:38;;;;;;;53.40;47.70;;;;;;;9.96;100.00;96721.48;109633;1250;66093;-66
2023/10/20 03:53:05;;;;;;;54.10;48.40;;;;;;;9.98;100.00;96718.67;109535;1251;59998;-66
2023/10/20 03:55:33;;;;;;;53.70;48.00;;;;;;;10.00;100.00;96712.46;109612;1250;64122;-66
2023/10/20 03:58:01;;;;;;;53.80;48.00;;;;;;;10.02;100.00;96716.81;109616;1250;59259;-66
2023/10/20 04:00:31;;;;;;;54.90;47.50;;;;;;;10.04;100.00;96726.34;109587;1250;59029;-66
2023/10/20 04:02:58;;;;;;;51.90;46.50;;;;;;;10.05;100.00;96725.89;109635;1250;65881;-66
2023/10/20 04:05:26;;;;;;;53.90;47.20;;;;;;;10.07;100.00;96725.70;109625;1250;59001;-67
2023/10/20 04:07:52;;;;;;;53.30;45.70;;;;;;;10.09;100.00;96715.25;109629;1250;62897;-65
2023/10/20 04:10:19;;;;;;;49.50;44.50;;;;;;;10.10;100.00;96704.42;109624;1250;59099;-65
2023/10/20 04:12:47;;;;;;;52.10;46.10;;;;;;;10.11;100.00;96700.80;109575;1250;59068;-66
2023/10/20 04:15:15;;;;;;;49.90;44.40;;;;;;;10.12;100.00;96694.32;109622;1250;65754;-66
2023/10/20 04:17:44;;;;;;;52.90;46.90;;;;;;;10.13;100.00;96692.82;109431;1251;60753;-65
2023/10/20 04:20:17;;;;;;;51.90;45.70;;;;;;;10.14;100.00;96694.14;109587;1250;64040;-65
2023/10/20 04:22:49;;;;;;;48.00;42.90;;;;;;;10.16;100.00;96696.51;109601;1250;58946;-66
2023/10/20 04:25:17;;;;;;;52.60;44.30;;;;;;;10.17;100.00;96695.85;109483;1251;59009;-66
2023/10/20 04:52:20;;;;;;;47.80;42.70;;;;;;;10.21;100.00;96668.28;109395;1251;59476;-66
2023/10/20 04:57:52;;;;;;;47.60;42.50;;;;;;;10.23;100.00;96671.39;109600;1250;59203;-65
2023/10/20 05:05:39;;;;;;;48.40;43.00;;;;;;;10.29;100.00;96680.58;109578;1250;59040;-65
2023/10/20 05:10:38;;;;;;;50.40;43.70;;;;;;;10.32;100.00;96681.50;109350;1254;60167;-66
2023/10/20 05:13:05;;;;;;;47.00;41.80;;;;;;;10.33;100.00;96691.48;109566;1250;64121;-66
2023/10/20 05:15:38;;;;;;;49.80;43.00;;;;;;;10.34;100.00;96690.36;109375;1251;59101;-65
2023/10/20 05:18:11;;;;;;;52.00;46.30;;;;;;;10.36;100.00;96690.52;109589;1250;58817;-66
2023/10/20 05:20:38;;;;;;;51.60;46.00;;;;;;;10.37;100.00;96684.21;109561;1250;64817;-66
2023/10/20 05:23:05;;;;;;;53.40;47.60;;;;;;;10.38;100.00;96684.59;109578;1250;59165;-66
2023/10/20 05:25:32;;;;;;;51.90;43.40;;;;;;;10.40;100.00;96689.96;109399;1250;73909;-66
2023/10/20 05:28:02;;;;;;;48.30;43.30;;;;;;;10.41;100.00;96690.70;109592;1250;59444;-66
2023/10/20 05:30:28;;;;;;;51.60;44.40;;;;;;;10.43;100.00;96695.27;109630;1250;58971;-66
2023/10/20 05:32:55;;;;;;;49.70;43.20;;;;;;;10.46;100.00;96697.32;109654;1250;59589;-67
2023/10/20 05:35:21;;;;;;;47.60;42.60;;;;;;;10.47;100.00;96702.09;109587;1250;60094;-66
2023/10/20 05:37:48;;;;;;;43.60;39.10;;;;;;;10.50;100.00;96703.23;109595;1250;59148;-66
2023/10/20 05:40:15;;;;;;;44.80;40.00;;;;;;;10.53;100.00;96701.17;109577;1250;59013;-66
2023/10/20 05:42:42;;;;;;;41.80;37.30;;;;;;;10.56;100.00;96699.99;109624;1250;59217;-66
2023/10/20 05:45:17;;;;;;;48.60;43.30;;;;;;;10.59;100.00;96691.71;109566;1250;64819;-67
2023/10/20 05:47:44;;;;;;;44.80;38.30;;;;;;;10.62;100.00;96679.15;109346;1250;61033;-66
2023/10/20 05:50:11;;;;;;;41.40;36.90;;;;;;;10.65;100.00;96680.76;109605;1250;62814;-66
2023/10/20 05:52:39;;;;;;;41.90;36.70;;;;;;;10.68;100.00;96682.55;109490;1251;58960;-66
2023/10/20 05:55:06;;;;;;;41.30;36.70;;;;;;;10.71;100.00;96684.21;109574;1250;59083;-66
2023/10/20 05:57:33;;;;;;;42.60;37.30;;;;;;;10.72;100.00;96684.25;109577;1250;64790;-66
2023/10/20 05:59:59;;;;;;;42.00;37.50;;;;;;;10.73;100.00;96685.78;109372;1251;59045;-66
2023/10/20 06:02:27;;;;;;;41.80;37.10;;;;;;;10.75;100.00;96687.46;109598;1250;62489;-65
2023/10/20 06:04:53;;;;;;;40.40;35.40;;;;;;;10.79;100.00;96673.59;109544;1250;59000;-66
2023/10/20 06:07:20;;;;;;;39.50;34.40;;;;;;;10.82;100.00;96666.41;109604;1250;59098;-65
2023/10/20 06:09:49;;;;;;;42.30;35.80;;;;;;;10.84;100.00;96662.11;109595;1250;65988;-65
2023/10/20 06:12:15;;;;;;;38.30;33.80;;;;;;;10.85;100.00;96664.48;109631;1250;59008;-66
2023/10/20 06:14:42;;;;;;;37.70;33.60;;;;;;;10.86;100.00;96661.48;109617;1250;62930;-66
2023/10/20 06:17:09;;;;;;;38.90;32.70;;;;;;;10.89;100.00;96660.46;109574;1250;58992;-66
2023/10/20 06:19:35;;;;;;;35.20;31.30;;;;;;;10.94;100.00;96668.11;109597;1250;59109;-65
2023/10/20 06:22:03;;;;;;;38.40;33.10;;;;;;;10.98;100.00;96673.15;109648;1250;65722;-65
2023/10/20 06:24:29;;;;;;;36.80;32.80;;;;;;;11.02;100.00;96677.58;109608;1251;59043;-66
2023/10/20 06:27:02;;;;;;;41.90;36.40;;;;;;;11.04;100.00;96676.53;109605;1250;64088;-66
2023/10/20 06:29:42;;;;;;;39.00;33.80;;;;;;;11.04;100.00;96673.48;109373;1251;59321;-66
2023/10/20 06:32:36;;;;;;;34.80;30.50;;;;;;;11.04;100.00;96672.54;109633;1250;59339;-66
2023/10/20 06:35:02;;;;;;;34.50;30.50;;;;;;;11.06;100.00;96671.84;109597;1250;65774;-66
2023/10/20 06:37:35;;;;;;;38.20;34.20;;;;;;;11.09;100.00;96672.71;109592;1250;59953;-67
2023/10/20 06:40:03;;;;;;;41.50;34.50;;;;;;;11.15;100.00;96672.40;109529;1250;64062;-66
2023/10/20 06:42:30;;;;;;;43.50;32.50;;;;;;;11.25;100.00;96669.64;109545;1250;59009;-68
2023/10/20 06:44:56;;;;;;;42.40;34.80;;;;;;;11.36;100.00;96667.90;109533;1251;58917;-66
2023/10/20 06:47:23;;;;;;;41.10;36.70;;;;;;;11.49;100.00;96660.80;109574;1250;58990;-66
2023/10/20 06:49:49;;;;;;;38.20;34.30;;;;;;;11.63;100.00;96655.60;109481;1250;59007;-66
2023/10/20 06:52:18;;;;;;;36.00;32.10;;;;;;;11.76;100.00;96647.37;109524;1250;59225;-66
2023/10/20 06:54:46;;;;;;;35.80;32.10;;;;;;;11.88;100.00;96642.55;109532;1250;59058;-66
2023/10/20 06:57:14;;;;;;;32.10;28.60;;;;;;;11.95;100.00;96640.01;109567;1251;58981;-67
2023/10/20 06:59:40;;;;;;;30.50;27.30;;;;;;;11.98;100.00;96638.41;109548;1253;66139;-66
2023/10/20 07:02:07;;;;;;;33.00;28.60;;;;;;;12.00;100.00;96635.89;109485;1250;59897;-65
2023/10/20 07:04:33;;;;;;;32.80;28.30;;;;;;;12.03;100.00;96631.67;109509;1250;64193;-66
2023/10/20 07:07:00;;;;;;;31.80;28.40;;;;;;;12.07;100.00;96632.09;109514;1250;58942;-66
2023/10/20 07:09:27;;;;;;;32.80;29.00;;;;;;;12.14;100.00;96629.06;109561;1250;58959;-66
2023/10/20 07:11:53;;;;;;;29.50;26.40;;;;;;;12.23;100.00;96624.60;109549;1250;59793;-66
2023/10/20 07:14:19;;;;;;;30.40;27.20;;;;;;;12.31;100.00;96622.86;109508;1254;59265;-67
2023/10/20 07:16:46;;;;;;;27.50;24.60;;;;;;;12.37;100.00;96623.48;109592;1250;59075;-67
2023/10/20 07:19:12;;;;;;;29.10;26.10;;;;;;;12.41;100.00;96625.14;109466;1250;58970;-65
2023/10/20 07:21:39;;;;;;;29.50;25.90;;;;;;;12.46;100.00;96621.38;109524;1252;58878;-65
2023/10/20 07:24:07;;;;;;;28.90;26.10;;;;;;;12.52;100.00;96618.92;109517;1253;66153;-65
2023/10/20 07:26:34;;;;;;;29.20;26.20;;;;;;;12.56;100.00;96608.86;109546;1252;60265;-66
2023/10/20 07:29:01;;;;;;;28.50;25.50;;;;;;;12.59;100.00;96597.48;109543;1253;62897;-66
2023/10/20 07:31:28;;;;;;;34.10;30.40;;;;;;;12.63;100.00;96593.42;109526;1254;59263;-66
2023/10/20 07:33:56;;;;;;;29.80;26.70;;;;;;;12.67;100.00;96596.88;109539;1252;59018;-66
2023/10/20 07:36:22;;;;;;;32.40;29.10;;;;;;;12.69;100.00;96601.90;109261;1252;66550;-66
2023/10/20 07:38:49;;;;;;;35.30;31.50;;;;;;;12.72;100.00;96605.73;109514;1253;59191;-66
2023/10/20 07:41:17;;;;;;;38.90;34.70;;;;;;;12.73;100.00;96606.64;109525;1252;64321;-66
2023/10/20 07:43:43;;;;;;;39.50;34.40;;;;;;;12.76;100.00;96608.02;109588;1252;58948;-66
2023/10/20 07:46:14;;;;;;;34.20;30.60;;;;;;;12.78;100.00;96608.65;109534;1253;59020;-66
2023/10/20 07:48:42;;;;;;;35.00;31.50;;;;;;;12.79;100.00;96613.68;109537;1252;64978;-66
2023/10/20 07:51:08;;;;;;;39.90;35.80;;;;;;;12.82;100.00;96609.23;109531;1253;60102;-66
2023/10/20 07:53:35;;;;;;;41.90;38.00;;;;;;;12.84;100.00;96606.64;109520;1253;63739;-66
2023/10/20 07:56:02;;;;;;;31.60;28.40;;;;;;;12.89;100.00;96608.45;109516;1252;58967;-66
2023/10/20 07:58:29;;;;;;;30.40;27.20;;;;;;;12.91;100.00;96609.07;109539;1252;59059;-66
2023/10/20 08:00:55;;;;;;;36.50;32.70;;;;;;;12.91;100.00;96608.30;109527;1252;64816;-66
2023/10/20 08:03:23;;;;;;;34.60;30.90;;;;;;;12.91;100.00;96596.09;109516;1251;59000;-66
2023/10/20 08:05:50;;;;;;;32.00;28.80;;;;;;;12.93;100.00;96592.63;109583;1252;62859;-66
2023/10/20 08:08:17;;;;;;;28.00;25.00;;;;;;;13.02;100.00;96589.13;109276;1252;59065;-66
2023/10/20 08:10:43;;;;;;;30.40;27.50;;;;;;;13.08;100.00;96586.44;109526;1251;58959;-66
2023/10/20 08:13:10;;;;;;;28.90;26.00;;;;;;;13.11;100.00;96578.94;109576;1252;59352;-66
2023/10/20 08:15:37;;;;;;;26.80;24.10;;;;;;;13.12;100.00;96572.61;109268;1253;60175;-66
2023/10/20 08:18:03;;;;;;;26.30;23.50;;;;;;;13.10;100.00;96564.84;109523;1251;63866;-66
2023/10/20 08:20:30;;;;;;;26.30;23.50;;;;;;;13.06;100.00;96563.13;109472;1252;59013;-66
2023/10/20 08:22:56;;;;;;;25.80;23.20;;;;;;;13.04;100.00;96566.38;109558;1252;59000;-66
2023/10/20 08:25:23;;;;;;;29.00;25.20;;;;;;;13.01;100.00;96569.11;109476;1253;58956;-66
2023/10/20 08:27:49;;;;;;;27.70;24.80;;;;;;;13.01;100.00;96566.78;109555;1251;58955;-66
2023/10/20 08:30:15;;;;;;;28.40;25.50;;;;;;;13.05;100.00;96559.00;109563;1252;59118;-65
2023/10/20 08:32:42;;;;;;;30.20;26.90;;;;;;;13.10;100.00;96556.23;109530;1252;59095;-66
2023/10/20 08:35:08;;;;;;;28.90;24.70;;;;;;;13.15;100.00;96560.83;109545;1253;58996;-66
2023/10/20 08:37:36;;;;;;;27.10;23.50;;;;;;;13.21;100.00;96558.44;109513;1252;59518;-67
2023/10/20 08:40:02;;;;;;;26.20;23.40;;;;;;;13.24;100.00;96551.83;109561;1251;60107;-67
2023/10/20 08:42:29;;;;;;;26.50;23.10;;;;;;;13.26;100.00;96551.57;109514;1252;63737;-68
2023/10/20 08:44:56;;;;;;;26.40;23.50;;;;;;;13.32;100.00;96548.64;109494;1251;59000;-68
2023/10/20 08:47:23;;;;;;;32.80;29.40;;;;;;;13.36;100.00;96554.86;109505;1252;58889;-67
2023/10/20 08:49:50;;;;;;;30.00;26.80;;;;;;;13.41;100.00;96556.11;109575;1252;65750;-67
2023/10/20 08:52:18;;;;;;;29.90;26.70;;;;;;;13.45;100.00;96558.06;109396;1252;59389;-67
2023/10/20 08:54:47;;;;;;;34.70;31.00;;;;;;;13.49;100.00;96554.09;109525;1253;63366;-67
2023/10/20 08:57:14;;;;;;;27.10;24.30;;;;;;;13.53;100.00;96550.74;109504;1253;59235;-68
2023/10/20 08:59:50;;;;;;;26.80;23.80;;;;;;;13.57;100.00;96542.25;109486;1253;58981;-68
2023/10/20 09:02:18;;;;;;;26.70;23.80;;;;;;;13.63;100.00;96535.80;109506;1251;66084;-68
2023/10/20 09:04:51;;;;;;;25.60;22.20;;;;;;;13.67;100.00;96534.09;109566;1251;60745;-68
2023/10/20 09:07:21;;;;;;;26.40;23.20;;;;;;;13.71;100.00;96543.45;109261;1250;152937;-68
2023/10/20 09:09:47;;;;;;;25.10;22.40;;;;;;;13.76;100.00;96541.02;109507;1251;59035;-68
2023/10/20 09:12:14;;;;;;;26.70;23.70;;;;;;;13.82;100.00;96538.55;109574;1251;59038;-68
2023/10/20 09:14:40;;;;;;;25.70;23.00;;;;;;;13.96;100.00;96525.69;109582;1251;58992;-68
2023/10/20 09:17:08;;;;;;;25.20;22.50;;;;;;;14.15;100.00;96514.00;109574;1250;60141;-68
2023/10/20 09:19:35;;;;;;;24.80;22.10;;;;;;;14.38;100.00;96502.70;109503;1252;64038;-67
2023/10/20 09:22:02;;;;;;;24.60;21.60;;;;;;;14.60;100.00;96501.09;109507;1251;58989;-66
2023/10/20 09:24:32;;;;;;;23.80;21.30;;;;;;;14.81;100.00;96500.83;109528;1253;59306;-67
2023/10/20 09:26:59;;;;;;;22.50;19.80;;;;;;;14.99;100.00;96493.95;109547;1252;65805;-67
2023/10/20 09:29:29;;;;;;;25.60;20.70;;;;;;;15.20;100.00;96491.12;109535;1251;59950;-68
2023/10/20 09:31:59;;;;;;;21.20;18.90;;;;;;;15.50;100.00;96495.70;109541;1252;62510;-67
2023/10/20 09:34:26;;;;;;;24.40;21.50;;;;;;;15.75;100.00;96494.21;109542;1252;59167;-67
2023/10/20 09:36:52;;;;;;;21.20;19.00;;;;;;;15.93;100.00;96486.19;109536;1251;59048;-68
2023/10/20 09:39:38;;;;;;;20.90;18.80;;;;;;;16.10;100.00;96481.77;109587;1252;66009;-67
2023/10/20 09:42:06;;;;;;;20.20;18.20;;;;;;;16.29;100.00;96482.52;109559;1253;58984;-68
2023/10/20 09:44:38;;;;;;;21.50;19.30;;;;;;;16.42;100.00;96486.71;109503;1253;63796;-67
2023/10/20 09:47:22;;;;;;;19.50;17.30;;;;;;;16.46;100.00;96492.63;109495;1253;59107;-68
2023/10/20 09:49:51;;;;;;;23.30;19.00;;;;;;;16.40;100.00;96496.00;109551;1252;58946;-68
2023/10/20 09:52:19;;;;;;;22.50;19.70;;;;;;;16.33;100.00;96490.77;109521;1252;66086;-68
2023/10/20 09:54:46;;;;;;;20.90;18.50;;;;;;;16.33;100.00;96483.69;109522;1252;68217;-68
2023/10/20 09:57:14;;;;;;;22.90;19.30;;;;;;;16.38;100.00;96476.69;109564;1252;63043;-68
2023/10/20 09:59:41;;;;;;;23.00;19.20;;;;;;;16.44;100.00;96467.65;109510;1255;59069;-68
2023/10/20 10:02:08;;;;;;;23.40;19.60;;;;;;;16.55;100.00;96464.62;109379;1253;59103;-68
2023/10/20 10:04:36;;;;;;;21.70;18.60;;;;;;;16.72;100.00;96468.52;109487;1254;66126;-68
2023/10/20 10:07:04;;;;;;;22.20;19.90;;;;;;;17.04;100.00;96474.15;109515;1253;59878;-68
2023/10/20 10:09:49;;;;;;;21.60;17.50;;;;;;;17.36;100.00;96474.98;109501;1254;62914;-67
2023/10/20 10:12:20;;;;;;;25.70;18.60;;;;;;;17.60;100.00;96474.52;109336;1252;59011;-68
2023/10/20 10:15:12;;;;;;;24.40;18.00;;;;;;;17.77;100.00;96475.05;109431;1253;59042;-68
2023/10/20 10:17:49;;;;;;;20.20;17.70;;;;;;;17.90;100.00;96475.48;109549;1252;66024;-67
2023/10/20 10:20:46;;;;;;;21.20;19.00;;;;;;;17.91;100.00;96477.11;109549;1251;59057;-68
2023/10/20 10:23:16;;;;;;;22.50;16.70;;;;;;;17.80;100.00;96466.75;109500;1254;64075;-68
2023/10/20 10:25:46;;;;;;;19.80;17.70;;;;;;;17.68;100.00;96468.67;109545;1253;59102;-68
2023/10/20 10:28:17;;;;;;;23.70;17.90;;;;;;;17.48;100.00;96466.87;109408;1253;59063;-68
2023/10/20 10:30:45;;;;;;;19.10;17.00;;;;;;;17.36;100.00;96458.62;109539;1253;66350;-68
2023/10/20 10:33:12;;;;;;;19.70;17.50;;;;;;;17.33;100.00;96457.06;109543;1254;60287;-68
2023/10/20 10:35:39;;;;;;;19.40;16.30;;;;;;;17.29;100.00;96455.98;109502;1253;64295;-68
2023/10/20 10:38:20;;;;;;;19.10;17.10;;;;;;;17.21;100.00;96462.40;109537;1252;58998;-67
2023/10/20 10:40:51;;;;;;;22.60;16.60;;;;;;;17.13;100.00;96473.41;109544;1252;58889;-67
2023/10/20 10:43:19;;;;;;;;;;;;;;;17.12;100.00;96473.09;109284;1251;65991;-68
2023/10/20 10:45:52;;;;;;;17.80;15.90;;;;;;;17.07;100.00;96472.99;109557;1252;59049;-68
2023/10/20 10:48:22;;;;;;;19.20;16.80;;;;;;;17.05;100.00;96472.45;109507;1253;64018;-69
2023/10/20 10:50:50;;;;;;;19.00;16.90;;;;;;;17.02;100.00;96480.44;109503;1252;58965;-68
2023/10/20 10:53:17;;;;;;;20.40;17.70;;;;;;;17.01;100.00;96469.42;109329;1253;58975;-67
2023/10/20 10:55:45;;;;;;;18.80;16.60;;;;;;;17.07;100.00;96463.88;109512;1253;64508;-68
2023/10/20 10:58:13;;;;;;;17.20;15.10;;;;;;;17.15;100.00;96462.93;109514;1253;67704;-67
2023/10/20 11:00:43;;;;;;;20.80;16.30;;;;;;;17.25;100.00;96462.68;109363;1253;62878;-68
2023/10/20 11:03:10;;;;;;;17.00;15.10;;;;;;;17.37;100.00;96458.34;109411;1252;58986;-68
2023/10/20 11:05:38;;;;;;;17.80;15.60;;;;;;;17.52;100.00;96457.91;109554;1253;59574;-68
2023/10/20 11:08:12;;;;;;;18.90;16.30;;;;;;;17.64;100.00;96465.66;109526;1252;65887;-67
2023/10/20 11:10:45;;;;;;;22.70;15.90;;;;;;;17.74;100.00;96462.56;109499;1252;59007;-68
2023/10/20 11:13:21;;;;;;;20.90;15.90;;;;;;;17.77;100.00;96468.11;109498;1253;63089;-68
2023/10/20 11:15:49;;;;;;;19.00;14.80;;;;;;;17.75;100.00;96477.11;109523;1251;59010;-70
2023/10/20 11:18:16;;;;;;;17.20;15.30;;;;;;;17.62;100.00;96480.52;109540;1253;59116;-68
2023/10/20 11:20:47;;;;;;;16.80;14.90;;;;;;;17.43;100.00;96477.59;109559;1253;73684;-68
2023/10/20 11:23:14;;;;;;;18.40;16.00;;;;;;;17.31;100.00;96473.42;109558;1251;59295;-67
2023/10/20 11:25:42;;;;;;;17.40;15.50;;;;;;;17.19;100.00;96471.88;109545;1251;63859;-69
2023/10/20 11:28:08;;;;;;;25.00;16.00;;;;;;;17.09;100.00;96472.37;109604;1251;58943;-68
2023/10/20 11:30:38;;;;;;;22.10;15.70;;;;;;;16.99;100.00;96469.55;109567;1251;58898;-66
2023/10/20 11:33:04;;;;;;;23.80;16.60;;;;;;;16.96;100.00;96462.88;109561;1251;66190;-68
2023/10/20 11:35:31;;;;;;;26.70;17.10;;;;;;;16.97;100.00;96456.09;109596;1251;59011;-68
2023/10/20 11:37:58;;;;;;;20.70;15.60;;;;;;;17.04;100.00;96453.23;109565;1251;62975;-68
2023/10/20 11:40:28;;;;;;;19.10;15.50;;;;;;;17.16;100.00;96447.00;109573;1251;59035;-68
2023/10/20 11:42:55;;;;;;;17.10;15.40;;;;;;;17.27;100.00;96440.23;109578;1250;58969;-68
2023/10/20 11:45:22;;;;;;;16.60;13.50;;;;;;;17.38;100.00;96437.74;109540;1250;65754;-68